sensor_id;sensor_type;location;lat;lon;timestamp;temperature;humidity
37896;DHT22;23733;53.254;10.430;2022-07-23T00:01:17;17.90;99.90
37896;DHT22;23733;53.254;10.430;2022-07-23T00:03:43;17.90;99.90
37896;DHT22;23733;53.254;10.430;2022-07-23T00:06:09;17.90;99.90
37896;DHT22;23733;53.254;10.430;2022-07-23T00:08:35;17.90;99.90
37896;DHT22;23733;53.254;10.430;2022-07-23T00:11:02;17.90;99.90
37896;DHT22;23733;53.254;10.430;2022-07-23T00:13:28;17.90;99.90
37896;DHT22;23733;53.254;10.430;2022-07-23T00:15:54;17.80;99.90
37896;DHT22;23733;53.254;10.430;2022-07-23T00:18:21;17.80;99.90
37896;DHT22;23733;53.254;10.430;2022-07-23T00:20:47;17.80;99.90
37896;DHT22;23733;53.254;10.430;2022-07-23T00:23:13;17.70;99.90
37896;DHT22;23733;53.254;10.430;2022-07-23T00:25:39;17.70;99.90
37896;DHT22;23733;53.254;10.430;2022-07-23T00:28:05;17.60;99.90
37896;DHT22;23733;53.254;10.430;2022-07-23T00:30:32;17.60;99.90
37896;DHT22;23733;53.254;10.430;2022-07-23T00:33:05;17.50;99.90
37896;DHT22;23733;53.254;10.430;2022-07-23T00:35:33;17.50;99.90
37896;DHT22;23733;53.254;10.430;2022-07-23T00:38:03;17.60;99.90
37896;DHT22;23733;53.254;10.430;2022-07-23T00:40:30;17.60;99.90
37896;DHT22;23733;53.254;10.430;2022-07-23T00:42:57;17.60;99.90
37896;DHT22;23733;53.254;10.430;2022-07-23T00:45:23;17.40;99.90
37896;DHT22;23733;53.254;10.430;2022-07-23T00:47:49;17.40;99.90
37896;DHT22;23733;53.254;10.430;2022-07-23T00:50:15;17.30;99.90
37896;DHT22;23733;53.254;10.430;2022-07-23T00:52:41;17.30;99.90
37896;DHT22;23733;53.254;10.430;2022-07-23T00:55:09;17.20;99.90
37896;DHT22;23733;53.254;10.430;2022-07-23T00:57:36;17.30;99.90
37896;DHT22;23733;53.254;10.430;2022-07-23T01:00:04;17.40;99.90
37896;DHT22;23733;53.254;10.430;2022-07-23T01:02:31;17.40;99.90
37896;DHT22;23733;53.254;10.430;2022-07-23T01:04:57;17.50;99.90
37896;DHT22;23733;53.254;10.430;2022-07-23T01:07:23;17.50;99.90
37896;DHT22;23733;53.254;10.430;2022-07-23T01:09:51;17.50;99.90
37896;DHT22;23733;53.254;10.430;2022-07-23T01:12:18;17.50;99.90
37896;DHT22;23733;53.254;10.430;2022-07-23T01:14:44;17.50;99.90
37896;DHT22;23733;53.254;10.430;2022-07-23T01:17:10;17.50;99.90
37896;DHT22;23733;53.254;10.430;2022-07-23T01:19:36;17.40;99.90
37896;DHT22;23733;53.254;10.430;2022-07-23T01:22:03;17.40;99.90
37896;DHT22;23733;53.254;10.430;2022-07-23T01:24:30;17.40;99.90
37896;DHT22;23733;53.254;10.430;2022-07-23T01:26:56;17.40;99.90
37896;DHT22;23733;53.254;10.430;2022-07-23T01:29:22;17.40;99.90
37896;DHT22;23733;53.254;10.430;2022-07-23T01:31:48;17.40;99.90
37896;DHT22;23733;53.254;10.430;2022-07-23T01:34:14;17.40;99.90
37896;DHT22;23733;53.254;10.430;2022-07-23T01:36:40;17.30;99.90
37896;DHT22;23733;53.254;10.430;2022-07-23T01:39:07;17.30;99.90
37896;DHT22;23733;53.254;10.430;2022-07-23T01:41:34;17.40;99.90
37896;DHT22;23733;53.254;10.430;2022-07-23T01:44:00;17.40;99.90
37896;DHT22;23733;53.254;10.430;2022-07-23T01:46:26;17.30;99.90
37896;DHT22;23733;53.254;10.430;2022-07-23T01:48:52;17.30;99.90
37896;DHT22;23733;53.254;10.430;2022-07-23T01:51:18;17.30;99.90
37896;DHT22;23733;53.254;10.430;2022-07-23T01:53:44;17.30;99.90
37896;DHT22;23733;53.254;10.430;2022-07-23T01:56:10;17.30;99.90
37896;DHT22;23733;53.254;10.430;2022-07-23T01:58:36;17.30;99.90
37896;DHT22;23733;53.254;10.430;2022-07-23T02:01:02;17.30;99.90
37896;DHT22;23733;53.254;10.430;2022-07-23T02:03:28;17.30;99.90
37896;DHT22;23733;53.254;10.430;2022-07-23T02:05:54;17.30;99.90
37896;DHT22;23733;53.254;10.430;2022-07-23T02:08:20;17.30;99.90
37896;DHT22;23733;53.254;10.430;2022-07-23T02:10:46;17.30;99.90
37896;DHT22;23733;53.254;10.430;2022-07-23T02:13:13;17.30;99.90
37896;DHT22;23733;53.254;10.430;2022-07-23T02:15:39;17.30;99.90
37896;DHT22;23733;53.254;10.430;2022-07-23T02:18:05;17.20;99.90
37896;DHT22;23733;53.254;10.430;2022-07-23T02:20:31;17.20;99.90
37896;DHT22;23733;53.254;10.430;2022-07-23T02:22:57;17.20;99.90
37896;DHT22;23733;53.254;10.430;2022-07-23T02:25:23;17.20;99.90
37896;DHT22;23733;53.254;10.430;2022-07-23T02:27:49;17.10;99.90
37896;DHT22;23733;53.254;10.430;2022-07-23T02:30:15;17.10;99.90
37896;DHT22;23733;53.254;10.430;2022-07-23T02:32:41;17.10;99.90
37896;DHT22;23733;53.254;10.430;2022-07-23T02:35:07;17.10;99.90
37896;DHT22;23733;53.254;10.430;2022-07-23T02:37:33;17.00;99.90
37896;DHT22;23733;53.254;10.430;2022-07-23T02:39:59;17.00;99.90
37896;DHT22;23733;53.254;10.430;2022-07-23T02:42:25;17.00;99.90
37896;DHT22;23733;53.254;10.430;2022-07-23T02:44:51;16.90;99.90
37896;DHT22;23733;53.254;10.430;2022-07-23T02:47:17;16.90;99.90
37896;DHT22;23733;53.254;10.430;2022-07-23T02:49:43;16.90;99.90
37896;DHT22;23733;53.254;10.430;2022-07-23T02:52:09;16.90;99.90
37896;DHT22;23733;53.254;10.430;2022-07-23T02:54:36;16.90;99.90
37896;DHT22;23733;53.254;10.430;2022-07-23T02:57:04;16.90;99.90
37896;DHT22;23733;53.254;10.430;2022-07-23T02:59:30;16.90;99.90
37896;DHT22;23733;53.254;10.430;2022-07-23T03:01:56;16.90;99.90
37896;DHT22;23733;53.254;10.430;2022-07-23T03:04:22;16.90;99.90
37896;DHT22;23733;53.254;10.430;2022-07-23T03:06:48;16.80;99.90
37896;DHT22;23733;53.254;10.430;2022-07-23T03:09:14;16.80;99.90
37896;DHT22;23733;53.254;10.430;2022-07-23T03:11:41;16.80;99.90
37896;DHT22;23733;53.254;10.430;2022-07-23T03:14:07;16.80;99.90
37896;DHT22;23733;53.254;10.430;2022-07-23T03:16:33;16.80;99.90
37896;DHT22;23733;53.254;10.430;2022-07-23T03:18:59;16.80;99.90
37896;DHT22;23733;53.254;10.430;2022-07-23T03:21:25;16.70;99.90
37896;DHT22;23733;53.254;10.430;2022-07-23T03:23:51;16.70;99.90
37896;DHT22;23733;53.254;10.430;2022-07-23T03:26:17;16.70;99.90
37896;DHT22;23733;53.254;10.430;2022-07-23T03:28:43;16.70;99.90
37896;DHT22;23733;53.254;10.430;2022-07-23T03:31:09;16.70;99.90
37896;DHT22;23733;53.254;10.430;2022-07-23T03:33:35;16.60;99.90
37896;DHT22;23733;53.254;10.430;2022-07-23T03:36:01;16.60;99.90
37896;DHT22;23733;53.254;10.430;2022-07-23T03:38:27;16.60;99.90
37896;DHT22;23733;53.254;10.430;2022-07-23T03:40:53;16.50;99.90
37896;DHT22;23733;53.254;10.430;2022-07-23T03:43:19;16.50;99.90
37896;DHT22;23733;53.254;10.430;2022-07-23T03:45:45;16.50;99.90
37896;DHT22;23733;53.254;10.430;2022-07-23T03:48:11;16.50;99.90
37896;DHT22;23733;53.254;10.430;2022-07-23T03:50:37;16.50;99.90
37896;DHT22;23733;53.254;10.430;2022-07-23T03:53:03;16.50;99.90
37896;DHT22;23733;53.254;10.430;2022-07-23T03:55:29;16.40;99.90
37896;DHT22;23733;53.254;10.430;2022-07-23T03:57:55;16.30;99.90
37896;DHT22;23733;53.254;10.430;2022-07-23T04:00:21;16.40;99.90
37896;DHT22;23733;53.254;10.430;2022-07-23T04:02:47;16.30;99.90
37896;DHT22;23733;53.254;10.430;2022-07-23T04:05:13;16.30;99.90
37896;DHT22;23733;53.254;10.430;2022-07-23T04:07:39;16.30;99.90
37896;DHT22;23733;53.254;10.430;2022-07-23T04:10:06;16.30;99.90
37896;DHT22;23733;53.254;10.430;2022-07-23T04:12:33;16.30;99.90
37896;DHT22;23733;53.254;10.430;2022-07-23T04:14:59;16.30;99.90
37896;DHT22;23733;53.254;10.430;2022-07-23T04:17:25;16.30;99.90
37896;DHT22;23733;53.254;10.430;2022-07-23T04:19:51;16.30;99.90
37896;DHT22;23733;53.254;10.430;2022-07-23T04:22:17;16.30;99.90
37896;DHT22;23733;53.254;10.430;2022-07-23T04:24:43;16.30;99.90
37896;DHT22;23733;53.254;10.430;2022-07-23T04:27:09;16.30;99.90
37896;DHT22;23733;53.254;10.430;2022-07-23T04:29:35;16.30;99.90
37896;DHT22;23733;53.254;10.430;2022-07-23T04:32:01;16.30;99.90
37896;DHT22;23733;53.254;10.430;2022-07-23T04:34:27;16.40;99.90
37896;DHT22;23733;53.254;10.430;2022-07-23T04:36:54;16.40;99.90
37896;DHT22;23733;53.254;10.430;2022-07-23T04:39:20;16.30;99.90
37896;DHT22;23733;53.254;10.430;2022-07-23T04:41:46;16.30;99.90
37896;DHT22;23733;53.254;10.430;2022-07-23T04:44:12;16.40;99.90
37896;DHT22;23733;53.254;10.430;2022-07-23T04:46:38;16.40;99.90
37896;DHT22;23733;53.254;10.430;2022-07-23T04:49:05;16.40;99.90
37896;DHT22;23733;53.254;10.430;2022-07-23T04:51:31;16.30;99.90
37896;DHT22;23733;53.254;10.430;2022-07-23T04:53:57;16.30;99.90
37896;DHT22;23733;53.254;10.430;2022-07-23T04:56:23;16.30;99.90
37896;DHT22;23733;53.254;10.430;2022-07-23T04:58:49;16.30;99.90
37896;DHT22;23733;53.254;10.430;2022-07-23T05:01:15;16.30;99.90
37896;DHT22;23733;53.254;10.430;2022-07-23T05:03:41;16.20;99.90
37896;DHT22;23733;53.254;10.430;2022-07-23T05:06:07;16.20;99.90
37896;DHT22;23733;53.254;10.430;2022-07-23T05:08:33;16.20;99.90
37896;DHT22;23733;53.254;10.430;2022-07-23T05:10:59;16.20;99.90
37896;DHT22;23733;53.254;10.430;2022-07-23T05:13:25;16.20;99.90
37896;DHT22;23733;53.254;10.430;2022-07-23T05:15:51;16.20;99.90
37896;DHT22;23733;53.254;10.430;2022-07-23T05:18:17;16.10;99.90
37896;DHT22;23733;53.254;10.430;2022-07-23T05:20:43;16.10;99.90
37896;DHT22;23733;53.254;10.430;2022-07-23T05:23:09;16.10;99.90
37896;DHT22;23733;53.254;10.430;2022-07-23T05:25:36;16.10;99.90
37896;DHT22;23733;53.254;10.430;2022-07-23T05:28:02;16.10;99.90
37896;DHT22;23733;53.254;10.430;2022-07-23T05:30:28;16.00;99.90
37896;DHT22;23733;53.254;10.430;2022-07-23T05:32:54;16.10;99.90
37896;DHT22;23733;53.254;10.430;2022-07-23T05:35:20;16.00;99.90
37896;DHT22;23733;53.254;10.430;2022-07-23T05:37:46;16.00;99.90
37896;DHT22;23733;53.254;10.430;2022-07-23T05:40:12;16.00;99.90
37896;DHT22;23733;53.254;10.430;2022-07-23T05:42:39;16.10;99.90
37896;DHT22;23733;53.254;10.430;2022-07-23T05:45:06;16.10;99.90
37896;DHT22;23733;53.254;10.430;2022-07-23T05:47:44;16.10;99.90
37896;DHT22;23733;53.254;10.430;2022-07-23T05:50:11;16.10;99.90
37896;DHT22;23733;53.254;10.430;2022-07-23T05:52:38;16.10;99.90
37896;DHT22;23733;53.254;10.430;2022-07-23T05:55:05;16.10;99.90
37896;DHT22;23733;53.254;10.430;2022-07-23T05:57:31;16.10;99.90
37896;DHT22;23733;53.254;10.430;2022-07-23T05:59:57;16.00;99.90
37896;DHT22;23733;53.254;10.430;2022-07-23T06:02:23;16.00;99.90
37896;DHT22;23733;53.254;10.430;2022-07-23T06:04:49;16.10;99.90
37896;DHT22;23733;53.254;10.430;2022-07-23T06:07:15;16.10;99.90
37896;DHT22;23733;53.254;10.430;2022-07-23T06:09:41;16.10;99.90
37896;DHT22;23733;53.254;10.430;2022-07-23T06:12:08;16.10;99.90
37896;DHT22;23733;53.254;10.430;2022-07-23T06:14:34;16.20;99.90
37896;DHT22;23733;53.254;10.430;2022-07-23T06:17:00;16.20;99.90
37896;DHT22;23733;53.254;10.430;2022-07-23T06:19:26;16.30;99.90
37896;DHT22;23733;53.254;10.430;2022-07-23T06:21:52;16.20;99.90
37896;DHT22;23733;53.254;10.430;2022-07-23T06:24:18;16.30;99.90
37896;DHT22;23733;53.254;10.430;2022-07-23T06:26:44;16.40;99.90
37896;DHT22;23733;53.254;10.430;2022-07-23T06:29:10;16.60;99.90
37896;DHT22;23733;53.254;10.430;2022-07-23T06:31:36;16.70;99.90
37896;DHT22;23733;53.254;10.430;2022-07-23T06:34:02;16.90;99.90
37896;DHT22;23733;53.254;10.430;2022-07-23T06:36:29;16.90;99.90
37896;DHT22;23733;53.254;10.430;2022-07-23T06:38:55;16.90;99.90
37896;DHT22;23733;53.254;10.430;2022-07-23T06:41:21;16.90;99.90
37896;DHT22;23733;53.254;10.430;2022-07-23T06:43:48;16.90;99.90
37896;DHT22;23733;53.254;10.430;2022-07-23T06:46:14;16.90;99.90
37896;DHT22;23733;53.254;10.430;2022-07-23T06:48:40;17.00;99.90
37896;DHT22;23733;53.254;10.430;2022-07-23T06:51:06;17.10;99.90
37896;DHT22;23733;53.254;10.430;2022-07-23T06:53:32;17.20;99.90
37896;DHT22;23733;53.254;10.430;2022-07-23T06:55:58;17.20;99.90
37896;DHT22;23733;53.254;10.430;2022-07-23T06:58:24;17.30;99.90
37896;DHT22;23733;53.254;10.430;2022-07-23T07:00:50;17.30;99.90
37896;DHT22;23733;53.254;10.430;2022-07-23T07:03:18;17.40;99.90
37896;DHT22;23733;53.254;10.430;2022-07-23T07:05:44;17.40;99.90
37896;DHT22;23733;53.254;10.430;2022-07-23T07:08:10;17.40;99.90
37896;DHT22;23733;53.254;10.430;2022-07-23T07:10:36;17.60;99.90
37896;DHT22;23733;53.254;10.430;2022-07-23T07:13:02;17.60;99.90
37896;DHT22;23733;53.254;10.430;2022-07-23T07:15:28;17.70;99.90
37896;DHT22;23733;53.254;10.430;2022-07-23T07:17:54;17.60;99.90
37896;DHT22;23733;53.254;10.430;2022-07-23T07:20:20;17.70;99.90
37896;DHT22;23733;53.254;10.430;2022-07-23T07:22:46;17.80;99.90
37896;DHT22;23733;53.254;10.430;2022-07-23T07:25:12;17.90;99.90
37896;DHT22;23733;53.254;10.430;2022-07-23T07:27:38;18.00;99.90
37896;DHT22;23733;53.254;10.430;2022-07-23T07:30:06;18.00;99.90
37896;DHT22;23733;53.254;10.430;2022-07-23T07:32:32;18.00;99.90
37896;DHT22;23733;53.254;10.430;2022-07-23T07:34:58;18.10;99.90
37896;DHT22;23733;53.254;10.430;2022-07-23T07:37:24;18.10;99.90
37896;DHT22;23733;53.254;10.430;2022-07-23T07:39:50;18.20;99.90
37896;DHT22;23733;53.254;10.430;2022-07-23T07:42:16;18.10;99.90
37896;DHT22;23733;53.254;10.430;2022-07-23T07:44:42;18.10;99.90
37896;DHT22;23733;53.254;10.430;2022-07-23T07:47:08;18.10;99.90
37896;DHT22;23733;53.254;10.430;2022-07-23T07:49:34;18.10;99.90
37896;DHT22;23733;53.254;10.430;2022-07-23T07:52:00;18.20;99.90
37896;DHT22;23733;53.254;10.430;2022-07-23T07:54:26;18.20;99.90
37896;DHT22;23733;53.254;10.430;2022-07-23T07:56:52;18.30;99.90
37896;DHT22;23733;53.254;10.430;2022-07-23T07:59:18;18.40;99.90
37896;DHT22;23733;53.254;10.430;2022-07-23T08:01:44;18.40;99.90
37896;DHT22;23733;53.254;10.430;2022-07-23T08:04:10;18.40;99.90
37896;DHT22;23733;53.254;10.430;2022-07-23T08:06:36;18.30;99.90
37896;DHT22;23733;53.254;10.430;2022-07-23T08:09:02;18.30;99.90
37896;DHT22;23733;53.254;10.430;2022-07-23T08:11:28;18.30;99.90
37896;DHT22;23733;53.254;10.430;2022-07-23T08:13:54;18.30;99.90
37896;DHT22;23733;53.254;10.430;2022-07-23T08:16:20;18.40;99.90
37896;DHT22;23733;53.254;10.430;2022-07-23T08:18:46;18.50;99.90
37896;DHT22;23733;53.254;10.430;2022-07-23T08:21:12;18.60;99.90
37896;DHT22;23733;53.254;10.430;2022-07-23T08:23:38;18.60;99.90
37896;DHT22;23733;53.254;10.430;2022-07-23T08:26:04;18.70;99.90
37896;DHT22;23733;53.254;10.430;2022-07-23T08:28:30;18.70;99.90
37896;DHT22;23733;53.254;10.430;2022-07-23T08:30:59;18.80;99.90
37896;DHT22;23733;53.254;10.430;2022-07-23T08:33:26;18.80;99.90
37896;DHT22;23733;53.254;10.430;2022-07-23T08:35:52;18.60;99.90
37896;DHT22;23733;53.254;10.430;2022-07-23T08:38:22;18.60;99.90
37896;DHT22;23733;53.254;10.430;2022-07-23T08:40:51;18.60;99.90
37896;DHT22;23733;53.254;10.430;2022-07-23T08:43:23;18.70;99.90
37896;DHT22;23733;53.254;10.430;2022-07-23T08:45:53;18.90;99.90
37896;DHT22;23733;53.254;10.430;2022-07-23T08:48:21;18.90;99.90
37896;DHT22;23733;53.254;10.430;2022-07-23T08:50:50;19.00;99.90
37896;DHT22;23733;53.254;10.430;2022-07-23T08:53:18;19.10;99.90
37896;DHT22;23733;53.254;10.430;2022-07-23T08:55:45;19.10;99.90
37896;DHT22;23733;53.254;10.430;2022-07-23T08:58:12;19.20;99.90
37896;DHT22;23733;53.254;10.430;2022-07-23T09:00:38;19.10;99.90
37896;DHT22;23733;53.254;10.430;2022-07-23T09:03:04;19.20;99.90
37896;DHT22;23733;53.254;10.430;2022-07-23T09:05:30;19.30;99.90
37896;DHT22;23733;53.254;10.430;2022-07-23T09:08:15;19.20;99.90
37896;DHT22;23733;53.254;10.430;2022-07-23T09:10:56;19.20;99.90
37896;DHT22;23733;53.254;10.430;2022-07-23T09:13:46;19.30;99.90
37896;DHT22;23733;53.254;10.430;2022-07-23T09:16:18;19.30;99.90
37896;DHT22;23733;53.254;10.430;2022-07-23T09:18:50;19.30;99.90
37896;DHT22;23733;53.254;10.430;2022-07-23T09:24:03;19.20;99.90
37896;DHT22;23733;53.254;10.430;2022-07-23T09:26:38;19.10;99.90
37896;DHT22;23733;53.254;10.430;2022-07-23T09:29:20;19.10;99.90
37896;DHT22;23733;53.254;10.430;2022-07-23T09:31:54;19.10;99.90
37896;DHT22;23733;53.254;10.430;2022-07-23T09:34:23;19.20;99.90
37896;DHT22;23733;53.254;10.430;2022-07-23T09:36:51;19.30;99.90
37896;DHT22;23733;53.254;10.430;2022-07-23T09:39:38;19.50;99.90
37896;DHT22;23733;53.254;10.430;2022-07-23T09:42:21;19.60;99.90
37896;DHT22;23733;53.254;10.430;2022-07-23T09:44:53;19.60;99.90
37896;DHT22;23733;53.254;10.430;2022-07-23T09:47:21;19.50;99.90
37896;DHT22;23733;53.254;10.430;2022-07-23T09:52:37;19.60;99.90
37896;DHT22;23733;53.254;10.430;2022-07-23T09:55:08;19.60;99.90
37896;DHT22;23733;53.254;10.430;2022-07-23T09:57:35;19.60;99.90
37896;DHT22;23733;53.254;10.430;2022-07-23T10:00:04;19.60;99.90
37896;DHT22;23733;53.254;10.430;2022-07-23T10:02:32;19.60;99.90
37896;DHT22;23733;53.254;10.430;2022-07-23T10:05:00;19.70;99.90
37896;DHT22;23733;53.254;10.430;2022-07-23T10:07:27;19.70;99.90
37896;DHT22;23733;53.254;10.430;2022-07-23T10:09:57;19.80;99.90
37896;DHT22;23733;53.254;10.430;2022-07-23T10:12:24;19.90;99.90
37896;DHT22;23733;53.254;10.430;2022-07-23T10:15:10;20.00;99.90
37896;DHT22;23733;53.254;10.430;2022-07-23T10:17:36;20.10;99.90
37896;DHT22;23733;53.254;10.430;2022-07-23T10:20:03;20.00;99.90
37896;DHT22;23733;53.254;10.430;2022-07-23T10:22:36;20.00;99.90
37896;DHT22;23733;53.254;10.430;2022-07-23T10:30:07;19.70;99.90
37896;DHT22;23733;53.254;10.430;2022-07-23T10:32:55;19.70;99.90
37896;DHT22;23733;53.254;10.430;2022-07-23T10:38:27;19.70;99.90
37896;DHT22;23733;53.254;10.430;2022-07-23T10:40:59;19.80;99.90
37896;DHT22;23733;53.254;10.430;2022-07-23T10:43:26;19.90;99.90
37896;DHT22;23733;53.254;10.430;2022-07-23T10:45:53;20.00;99.90
37896;DHT22;23733;53.254;10.430;2022-07-23T10:48:21;20.10;99.90
37896;DHT22;23733;53.254;10.430;2022-07-23T10:59:20;20.10;99.90
37896;DHT22;23733;53.254;10.430;2022-07-23T11:01:46;20.20;99.90
37896;DHT22;23733;53.254;10.430;2022-07-23T11:04:12;20.40;99.90
37896;DHT22;23733;53.254;10.430;2022-07-23T11:09:39;20.40;99.90
37896;DHT22;23733;53.254;10.430;2022-07-23T11:17:29;20.50;99.90
37896;DHT22;23733;53.254;10.430;2022-07-23T11:25:11;20.50;99.90
37896;DHT22;23733;53.254;10.430;2022-07-23T11:27:42;20.60;99.90
37896;DHT22;23733;53.254;10.430;2022-07-23T11:30:11;20.60;99.90
37896;DHT22;23733;53.254;10.430;2022-07-23T11:35:36;20.90;99.90
37896;DHT22;23733;53.254;10.430;2022-07-23T11:38:14;20.90;99.90
37896;DHT22;23733;53.254;10.430;2022-07-23T11:40:40;20.90;99.90
37896;DHT22;23733;53.254;10.430;2022-07-23T11:43:09;20.90;99.90
37896;DHT22;23733;53.254;10.430;2022-07-23T11:45:41;20.80;99.90
37896;DHT22;23733;53.254;10.430;2022-07-23T11:48:09;20.70;99.90
37896;DHT22;23733;53.254;10.430;2022-07-23T11:50:36;20.90;99.90
37896;DHT22;23733;53.254;10.430;2022-07-23T11:53:02;21.00;99.90
37896;DHT22;23733;53.254;10.430;2022-07-23T11:55:29;21.00;99.90
37896;DHT22;23733;53.254;10.430;2022-07-23T11:57:55;21.00;99.90
37896;DHT22;23733;53.254;10.430;2022-07-23T12:00:24;20.90;99.90
37896;DHT22;23733;53.254;10.430;2022-07-23T12:02:52;20.90;99.90
37896;DHT22;23733;53.254;10.430;2022-07-23T12:05:24;21.00;99.90
37896;DHT22;23733;53.254;10.430;2022-07-23T12:07:52;20.90;99.90
37896;DHT22;23733;53.254;10.430;2022-07-23T12:10:20;20.90;99.90
37896;DHT22;23733;53.254;10.430;2022-07-23T12:12:55;20.90;99.90
37896;DHT22;23733;53.254;10.430;2022-07-23T12:15:29;20.60;99.90
37896;DHT22;23733;53.254;10.430;2022-07-23T12:17:58;20.70;99.90
37896;DHT22;23733;53.254;10.430;2022-07-23T12:20:26;20.70;99.90
37896;DHT22;23733;53.254;10.430;2022-07-23T12:22:57;20.70;99.90
37896;DHT22;23733;53.254;10.430;2022-07-23T12:25:26;20.80;99.90
37896;DHT22;23733;53.254;10.430;2022-07-23T12:30:41;20.90;99.90
37896;DHT22;23733;53.254;10.430;2022-07-23T12:33:10;21.00;99.90
37896;DHT22;23733;53.254;10.430;2022-07-23T12:35:40;21.00;99.90
37896;DHT22;23733;53.254;10.430;2022-07-23T12:38:09;21.00;99.90
37896;DHT22;23733;53.254;10.430;2022-07-23T12:43:22;20.90;99.90
37896;DHT22;23733;53.254;10.430;2022-07-23T12:45:49;21.00;99.90
37896;DHT22;23733;53.254;10.430;2022-07-23T12:48:22;21.00;99.90
37896;DHT22;23733;53.254;10.430;2022-07-23T12:50:54;21.10;99.90
37896;DHT22;23733;53.254;10.430;2022-07-23T12:53:24;21.10;99.90
37896;DHT22;23733;53.254;10.430;2022-07-23T12:56:01;21.20;99.90
37896;DHT22;23733;53.254;10.430;2022-07-23T12:58:49;21.40;99.90
37896;DHT22;23733;53.254;10.430;2022-07-23T13:06:35;21.30;99.90
37896;DHT22;23733;53.254;10.430;2022-07-23T13:09:03;21.30;99.90
37896;DHT22;23733;53.254;10.430;2022-07-23T13:11:29;21.30;99.90
37896;DHT22;23733;53.254;10.430;2022-07-23T13:13:55;21.30;99.90
37896;DHT22;23733;53.254;10.430;2022-07-23T13:16:21;21.30;99.90
37896;DHT22;23733;53.254;10.430;2022-07-23T13:18:48;21.40;99.90
37896;DHT22;23733;53.254;10.430;2022-07-23T13:21:14;21.50;99.90
37896;DHT22;23733;53.254;10.430;2022-07-23T13:23:40;21.30;99.90
37896;DHT22;23733;53.254;10.430;2022-07-23T13:26:07;21.40;99.90
37896;DHT22;23733;53.254;10.430;2022-07-23T13:28:33;21.40;99.90
37896;DHT22;23733;53.254;10.430;2022-07-23T13:30:59;21.30;99.90
37896;DHT22;23733;53.254;10.430;2022-07-23T13:33:25;21.30;99.90
37896;DHT22;23733;53.254;10.430;2022-07-23T13:35:53;21.40;99.90
37896;DHT22;23733;53.254;10.430;2022-07-23T13:38:20;21.50;99.90
37896;DHT22;23733;53.254;10.430;2022-07-23T13:40:48;21.50;99.90
37896;DHT22;23733;53.254;10.430;2022-07-23T13:43:17;21.40;99.90
37896;DHT22;23733;53.254;10.430;2022-07-23T13:45:43;21.40;99.90
37896;DHT22;23733;53.254;10.430;2022-07-23T13:48:11;21.50;99.90
37896;DHT22;23733;53.254;10.430;2022-07-23T13:50:38;21.50;99.90
37896;DHT22;23733;53.254;10.430;2022-07-23T13:53:13;21.60;99.90
37896;DHT22;23733;53.254;10.430;2022-07-23T13:55:40;21.50;99.90
37896;DHT22;23733;53.254;10.430;2022-07-23T13:58:08;21.40;99.90
37896;DHT22;23733;53.254;10.430;2022-07-23T14:00:37;21.40;99.90
37896;DHT22;23733;53.254;10.430;2022-07-23T14:03:03;21.40;99.90
37896;DHT22;23733;53.254;10.430;2022-07-23T14:05:29;21.40;99.90
37896;DHT22;23733;53.254;10.430;2022-07-23T14:07:56;21.40;99.90
37896;DHT22;23733;53.254;10.430;2022-07-23T14:10:23;21.50;99.90
37896;DHT22;23733;53.254;10.430;2022-07-23T14:12:51;21.60;99.90
37896;DHT22;23733;53.254;10.430;2022-07-23T14:15:19;21.50;99.90
37896;DHT22;23733;53.254;10.430;2022-07-23T14:17:45;21.40;99.90
37896;DHT22;23733;53.254;10.430;2022-07-23T14:20:13;21.40;99.90
37896;DHT22;23733;53.254;10.430;2022-07-23T14:22:39;21.40;99.90
37896;DHT22;23733;53.254;10.430;2022-07-23T14:25:06;21.40;99.90
37896;DHT22;23733;53.254;10.430;2022-07-23T14:27:33;21.40;99.90
37896;DHT22;23733;53.254;10.430;2022-07-23T14:29:59;21.40;99.90
37896;DHT22;23733;53.254;10.430;2022-07-23T14:32:25;21.20;99.90
37896;DHT22;23733;53.254;10.430;2022-07-23T14:34:51;21.40;99.90
37896;DHT22;23733;53.254;10.430;2022-07-23T14:37:18;21.40;99.90
37896;DHT22;23733;53.254;10.430;2022-07-23T14:39:45;21.40;99.90
37896;DHT22;23733;53.254;10.430;2022-07-23T14:42:11;21.20;99.90
37896;DHT22;23733;53.254;10.430;2022-07-23T14:44:37;21.10;99.90
37896;DHT22;23733;53.254;10.430;2022-07-23T14:47:04;21.10;99.90
37896;DHT22;23733;53.254;10.430;2022-07-23T14:49:32;21.10;99.90
37896;DHT22;23733;53.254;10.430;2022-07-23T14:51:59;21.00;99.90
37896;DHT22;23733;53.254;10.430;2022-07-23T14:54:26;20.90;99.90
37896;DHT22;23733;53.254;10.430;2022-07-23T14:56:53;20.90;99.90
37896;DHT22;23733;53.254;10.430;2022-07-23T14:59:20;20.90;99.90
37896;DHT22;23733;53.254;10.430;2022-07-23T15:01:46;20.90;99.90
37896;DHT22;23733;53.254;10.430;2022-07-23T15:04:12;21.00;99.90
37896;DHT22;23733;53.254;10.430;2022-07-23T15:06:38;21.10;99.90
37896;DHT22;23733;53.254;10.430;2022-07-23T15:09:05;21.10;99.90
37896;DHT22;23733;53.254;10.430;2022-07-23T15:11:31;21.10;99.90
37896;DHT22;23733;53.254;10.430;2022-07-23T15:14:04;21.10;99.90
37896;DHT22;23733;53.254;10.430;2022-07-23T15:16:32;21.10;99.90
37896;DHT22;23733;53.254;10.430;2022-07-23T15:18:58;21.10;99.90
37896;DHT22;23733;53.254;10.430;2022-07-23T15:21:25;21.10;99.90
37896;DHT22;23733;53.254;10.430;2022-07-23T15:23:51;21.10;99.90
37896;DHT22;23733;53.254;10.430;2022-07-23T15:26:18;21.00;99.90
37896;DHT22;23733;53.254;10.430;2022-07-23T15:28:44;21.10;99.90
37896;DHT22;23733;53.254;10.430;2022-07-23T15:31:10;21.10;99.90
37896;DHT22;23733;53.254;10.430;2022-07-23T15:33:36;21.10;99.90
37896;DHT22;23733;53.254;10.430;2022-07-23T15:36:03;21.10;99.90
37896;DHT22;23733;53.254;10.430;2022-07-23T15:38:29;21.20;99.90
37896;DHT22;23733;53.254;10.430;2022-07-23T15:40:56;21.10;99.90
37896;DHT22;23733;53.254;10.430;2022-07-23T15:43:24;20.90;99.90
37896;DHT22;23733;53.254;10.430;2022-07-23T15:45:51;20.80;99.90
37896;DHT22;23733;53.254;10.430;2022-07-23T15:48:18;20.70;99.90
37896;DHT22;23733;53.254;10.430;2022-07-23T15:50:44;20.60;99.90
37896;DHT22;23733;53.254;10.430;2022-07-23T15:53:10;20.70;99.90
37896;DHT22;23733;53.254;10.430;2022-07-23T15:55:36;20.70;99.90
37896;DHT22;23733;53.254;10.430;2022-07-23T15:58:04;20.80;99.90
37896;DHT22;23733;53.254;10.430;2022-07-23T16:00:30;20.90;99.90
37896;DHT22;23733;53.254;10.430;2022-07-23T16:02:56;20.90;99.90
37896;DHT22;23733;53.254;10.430;2022-07-23T16:05:22;20.90;99.90